• Join FlightAware (Why Join?)
  • Login
  • US Flag 
10:34AM EDT


 

Airport Tracker/Info


-or-


 

Live Flight TrackerFlight Track Log ✈ N549JB ✈ 15-Jul-2013 ✈ KGAI - KOXB

Flight Track Log - Related Links

Times and Time Zones

All times are in EDT time to prevent confusion due to time zone crossing. See the N549JB flight status page for this flight to view local times or setup timezone preferences in your user account.

Time Position Orientation Groundspeed Altitude Reporting Facility
EDT Latitude Longitude Course Direction KTS MPH feet Rate Location/Type
02:44PM 39.2333 -77.1500 38° Northeast 138 159 2,500  Level Potomac TRACON
02:45PM 39.2333 -77.1167 90° East 138 159 3,400 840 Climbing Potomac TRACON
02:46PM 39.2500 -77.0667 67° East 139 160 4,300 780 Climbing Potomac TRACON
02:47PM 39.2500 -77.0167 90° East 146 168 5,000 300 Climbing Potomac TRACON
02:48PM 39.2667 -76.9500 72° East 163 188 5,000  Level Potomac TRACON
02:49PM 39.2833 -76.9000 67° East 161 185 5,000  Level Potomac TRACON
02:50PM 39.3000 -76.8500 67° East 164 189 5,100  Climbing Potomac TRACON
02:51PM 39.3000 -76.7833 90° East 179 206 5,000  Descending Potomac TRACON
02:52PM 39.2833 -76.7333 113° Southeast 176 203 5,100  Climbing Potomac TRACON
02:53PM 39.2500 -76.6833 131° Southeast 184 212 5,000 -60 Descending Potomac TRACON
02:54PM 39.2167 -76.6333 131° Southeast 185 213 5,000  Level Potomac TRACON
02:55PM 39.1833 -76.6000 142° Southeast 183 211 5,000  Level Potomac TRACON
02:56PM 39.1500 -76.5500 131° Southeast 179 206 5,000  Level Potomac TRACON
02:57PM 39.1167 -76.5000 131° Southeast 179 206 5,000  Level Potomac TRACON
02:58PM 39.0833 -76.4500 131° Southeast 180 207 5,000  Level Potomac TRACON
02:59PM 39.0500 -76.4000 131° Southeast 185 213 5,000  Level Potomac TRACON
03:00PM 39.0167 -76.3667 142° Southeast 183 211 5,000  Level Potomac TRACON
03:01PM 38.9667 -76.3167 142° Southeast 186 214 5,000  Level Potomac TRACON
03:02PM 38.9242 -76.2481 129° Southeast 183 211 5,000  Level Washington Center
03:03PM 38.8908 -76.2050 135° Southeast 185 213 5,000  Level Washington Center
03:04PM 38.8517 -76.1567 136° Southeast 185 213 5,000  Level Washington Center
03:05PM 38.8206 -76.1139 133° Southeast 185 213 5,000  Level Washington Center
03:07PM 38.7706 -76.0522 136° Southeast 182 209 5,000  Level Washington Center
03:08PM 38.7292 -76.0014 136° Southeast 184 212 5,000  Level Washington Center
03:09PM 38.6939 -75.9561 135° Southeast 184 212 5,000 -300 Level Washington Center
03:10PM 38.6669 -75.9056 124° Southeast 187 215 4,500 -540 Descending Washington Center
03:11PM 38.6442 -75.8469 116° Southeast 194 223 4,000 -300 Descending Washington Center
03:12PM 38.6233 -75.7964 118° Southeast 174 200 4,000  Level Washington Center
03:13PM 38.5922 -75.7350 123° Southeast 174 200 4,100  Climbing Washington Center
03:14PM 38.5672 -75.6767 119° Southeast 179 206 4,100 -240 Level Washington Center
03:15PM 38.5442 -75.6342 125° Southeast 177 204 3,700 -540 Descending Washington Center
03:16PM 38.5192 -75.5731 118° Southeast 193 222 3,200 -360 Descending Washington Center
03:17PM 38.4922 -75.5147 121° Southeast 186 214 3,000 -60 Descending Washington Center
03:18PM 38.4692 -75.4672 122° Southeast 173 199 3,100 60 Climbing Washington Center
03:20PM 38.4295 -75.3811 142° Southeast  Level Estimated